Stations météo

réclame
Mon MeteoGroup
Formigueres, France (7737): Température de l'air & dewpoint: 16.10.2018 16:00:00 - 22.10.2018 16:00:00 (CEST)Formigueres, France (7737): Vitesse du vent & gusts: 16.10.2018 16:00:00 - 22.10.2018 16:00:00 (CEST)Formigueres, France (7737): Direction du vent: 16.10.2018 16:00:00 - 22.10.2018 16:00:00 (CEST)Formigueres, France (7737): Quantités de précipitations: 16.10.2018 16:00:00 - 22.10.2018 16:00:00 (CEST)
Date & Time tt [°C] td [°C] ff [km/h] ff [knt] fx [km/h] fx [knt] dd rr [mm]
22.10.2018 16:00:00 14,3 1,5 29 16 50 27 NNE 0,0
22.10.2018 15:00:00 14,8 3,3 26 14 44 24 NNE 0,0
22.10.2018 14:00:00 14,4 5,5 24 13 48 26 NNE -
22.10.2018 13:00:00 14,4 2,6 21 11 41 22 N 0,0
22.10.2018 12:00:00 13,3 1,6 24 13 41 22 N 0,0
22.10.2018 11:00:00 10,3 5,1 15 8 29 16 N 0,0
22.10.2018 10:00:00 8,8 4,4 2 1 13 7 NE 0,0
22.10.2018 09:00:00 3,2 -0,1 5 3 11 6 SE 0,0
22.10.2018 08:00:00 1,6 -1,7 0 0 8 4 N -
22.10.2018 07:00:00 1,5 -2,1 9 5 18 10 WSW 0,0
22.10.2018 06:00:00 2,3 -2,0 8 4 18 10 WSW 0,0
22.10.2018 05:00:00 3,3 -1,3 11 6 24 13 W 0,0
22.10.2018 04:00:00 3,5 -0,9 11 6 22 12 W 0,0
22.10.2018 03:00:00 3,9 -0,7 16 9 24 13 W 0,0
22.10.2018 02:00:00 3,7 -0,3 13 7 22 12 W -
22.10.2018 01:00:00 3,8 -0,8 15 8 21 11 W 0,0
22.10.2018 00:00:00 5,3 -0,1 13 7 21 11 WSW 0,0
21.10.2018 23:00:00 6,7 1,4 4 2 9 5 S 0,0
21.10.2018 22:00:00 7,4 3,1 0 0 15 8 N 0,0
21.10.2018 21:00:00 10,3 4,2 11 6 22 12 NW 0,0
21.10.2018 20:00:00 10,3 5,9 13 7 26 14 NNW -
21.10.2018 19:00:00 11,3 7,6 15 8 31 17 NW 0,0
21.10.2018 18:00:00 13,5 8,1 16 9 34 18 N 0,0
21.10.2018 17:00:00 15,4 9,1 18 10 34 18 N 0,0
21.10.2018 16:00:00 16,2 8,7 18 10 37 20 NNE 0,0
21.10.2018 15:00:00 16,9 6,7 18 10 31 17 NNE 0,0
21.10.2018 14:00:00 16,8 7,2 15 8 35 19 NNE -
21.10.2018 13:00:00 15,5 6,0 21 11 37 20 N 0,0
21.10.2018 12:00:00 14,4 6,2 22 12 35 19 NNE 0,0
21.10.2018 11:00:00 11,8 7,7 2 1 8 4 E 0,0
21.10.2018 10:00:00 8,9 5,1 2 1 11 6 NE 0,0
21.10.2018 09:00:00 4,1 2,3 5 3 18 10 WSW 0,0
21.10.2018 08:00:00 4,1 2,3 11 6 18 10 WSW -
21.10.2018 07:00:00 4,1 2,3 8 4 18 10 WSW 0,0
21.10.2018 06:00:00 4,4 2,7 13 7 18 10 WSW 0,0
21.10.2018 05:00:00 4,4 2,9 9 5 18 10 WSW 0,0
21.10.2018 04:00:00 4,7 3,0 13 7 18 10 WSW 0,0
21.10.2018 03:00:00 5,0 4,0 9 5 16 9 WSW 0,0
21.10.2018 02:00:00 5,2 3,2 8 4 18 10 WSW -
21.10.2018 01:00:00 5,4 3,7 9 5 16 9 WSW 0,0
21.10.2018 00:00:00 6,0 4,0 13 7 18 10 WSW 0,0
20.10.2018 23:00:00 6,5 4,3 11 6 16 9 W 0,0
20.10.2018 22:00:00 7,2 5,2 5 3 18 10 WSW 0,0
20.10.2018 21:00:00 8,4 6,0 9 5 16 9 W 0,0
20.10.2018 20:00:00 9,4 7,3 8 4 13 7 WSW -
20.10.2018 19:00:00 10,6 7,8 4 2 18 10 NE 0,0
20.10.2018 18:00:00 13,1 8,6 15 8 31 17 NNE 0,0
20.10.2018 17:00:00 14,8 7,6 9 5 22 12 NNE 0,0
20.10.2018 16:00:00 14,5 6,8 4 2 15 8 E 0,0
20.10.2018 15:00:00 13,5 6,8 4 2 22 12 N 0,0
20.10.2018 14:00:00 13,2 8,5 11 6 26 14 NNE -
20.10.2018 13:00:00 14,0 8,0 15 8 26 14 NNE 0,0
20.10.2018 12:00:00 14,4 7,4 5 3 16 9 E 0,0
20.10.2018 11:00:00 12,0 8,1 4 2 11 6 NE 0,0
20.10.2018 10:00:00 9,5 7,1 4 2 11 6 WSW 0,0
20.10.2018 09:00:00 7,9 5,9 4 2 16 9 W 0,0
20.10.2018 08:00:00 7,9 5,7 5 3 15 8 NNW -
20.10.2018 07:00:00 8,2 6,0 11 6 22 12 WSW 0,0
20.10.2018 06:00:00 8,0 6,5 9 5 18 10 WSW 0,0
20.10.2018 05:00:00 8,9 7,2 8 4 13 7 SW 0,0
20.10.2018 04:00:00 8,9 7,8 0 0 11 6 N 0,0
20.10.2018 03:00:00 9,4 7,5 8 4 15 8 WSW 0,0
20.10.2018 02:00:00 9,0 7,8 4 2 13 7 W -
20.10.2018 01:00:00 9,3 7,4 5 3 15 8 WSW 0,0
20.10.2018 00:00:00 9,2 7,3 8 4 11 6 W 0,0
19.10.2018 23:00:00 9,3 7,6 5 3 9 5 W 0,0
19.10.2018 22:00:00 9,2 7,6 4 2 11 6 W 0,0
19.10.2018 21:00:00 9,6 7,4 9 5 15 8 W 0,0
19.10.2018 20:00:00 10,7 8,1 4 2 11 6 W -
19.10.2018 19:00:00 12,1 8,0 5 3 9 5 SW 0,0
19.10.2018 18:00:00 13,3 8,1 2 1 11 6 SSW 0,0
19.10.2018 17:00:00 13,2 7,8 8 4 18 10 SSE 0,0
19.10.2018 16:00:00 12,6 8,7 8 4 18 10 ESE 0,0
19.10.2018 15:00:00 12,9 9,0 9 5 18 10 SSE 0,0
19.10.2018 14:00:00 12,9 8,2 5 3 26 14 SSE -
19.10.2018 13:00:00 14,0 8,8 2 1 16 9 SW 0,0
19.10.2018 12:00:00 13,3 9,5 8 4 15 8 SSE 0,0
19.10.2018 11:00:00 12,4 9,9 2 1 9 5 NE 0,0
19.10.2018 10:00:00 9,8 8,9 2 1 5 3 S 0,0
19.10.2018 09:00:00 8,8 7,9 2 1 8 4 SW 0,0
19.10.2018 08:00:00 8,8 7,7 4 2 8 4 SW -
19.10.2018 07:00:00 8,6 7,5 4 2 9 5 NNW 0,0
19.10.2018 06:00:00 8,6 7,7 4 2 8 4 N 0,0
19.10.2018 05:00:00 8,9 7,7 5 3 16 9 N 0,0
19.10.2018 04:00:00 8,9 7,7 2 1 15 8 W 0,2
19.10.2018 03:00:00 9,1 7,5 8 4 16 9 WSW 0,4
19.10.2018 02:00:00 9,4 8,0 9 5 22 12 NNE -
19.10.2018 01:00:00 9,5 8,6 5 3 15 8 NNE 0,0
19.10.2018 00:00:00 9,5 8,6 4 2 11 6 ENE 0,0
18.10.2018 23:00:00 9,5 8,6 5 3 15 8 SSE 0,0
18.10.2018 22:00:00 9,5 8,7 5 3 9 5 N 0,4
18.10.2018 21:00:00 9,5 8,6 4 2 13 7 ENE 0,2
18.10.2018 20:00:00 9,7 8,6 8 4 13 7 N -
18.10.2018 19:00:00 9,9 8,7 8 4 16 9 NE 0,0
18.10.2018 18:00:00 10,4 9,2 8 4 15 8 N 0,0
18.10.2018 17:00:00 10,9 9,8 4 2 16 9 NNE 0,2
18.10.2018 16:00:00 11,2 9,6 4 2 13 7 NNE 0,2
18.10.2018 15:00:00 10,4 9,5 8 4 21 11 ENE 0,2
18.10.2018 14:00:00 10,2 9,1 8 4 16 9 NNE -
18.10.2018 13:00:00 9,6 8,8 8 4 16 9 NNE 1,0
18.10.2018 12:00:00 9,3 8,5 5 3 13 7 NNE 2,0
18.10.2018 11:00:00 8,9 8,3 4 2 13 7 NE 1,0
18.10.2018 10:00:00 8,7 7,9 8 4 15 8 NNE 0,8
18.10.2018 09:00:00 8,3 7,5 5 3 11 6 N 1,0
18.10.2018 08:00:00 8,3 7,4 2 1 24 13 SE -
18.10.2018 07:00:00 8,4 7,8 11 6 22 12 N 0,2
18.10.2018 06:00:00 7,9 7,3 5 3 15 8 NE 0,6
18.10.2018 05:00:00 7,6 6,7 4 2 9 5 W 0,6
18.10.2018 04:00:00 7,0 5,8 4 2 11 6 WSW 0,0
18.10.2018 03:00:00 7,4 5,4 4 2 26 14 W 0,0
18.10.2018 02:00:00 6,8 4,9 9 5 21 11 WSW -
18.10.2018 01:00:00 7,6 5,7 9 5 16 9 WSW 0,0
18.10.2018 00:00:00 9,6 6,3 5 3 16 9 SW 0,0
17.10.2018 23:00:00 8,9 7,3 9 5 15 8 WSW 0,0
17.10.2018 22:00:00 9,1 7,4 4 2 11 6 SW 0,0
17.10.2018 21:00:00 9,0 7,9 5 3 11 6 SW 0,0
17.10.2018 20:00:00 9,1 8,0 2 1 11 6 WNW -
17.10.2018 19:00:00 9,4 8,0 5 3 22 12 E 0,0
17.10.2018 18:00:00 11,7 8,5 5 3 24 13 NE 0,0
17.10.2018 17:00:00 13,7 8,3 18 10 28 15 ESE 0,0
17.10.2018 16:00:00 15,0 8,5 11 6 34 18 E 0,0
17.10.2018 15:00:00 14,0 8,2 16 9 28 15 SE 0,0
17.10.2018 14:00:00 14,6 8,3 9 5 21 11 ESE -
17.10.2018 13:00:00 13,3 8,6 11 6 22 12 NNE 0,0
17.10.2018 12:00:00 12,0 7,5 5 3 11 6 NE 0,0
17.10.2018 11:00:00 11,3 8,5 8 4 13 7 E 0,0
17.10.2018 10:00:00 7,5 6,9 4 2 9 5 S 0,0
17.10.2018 09:00:00 5,3 4,6 2 1 11 6 WSW 0,0
17.10.2018 08:00:00 5,6 4,7 4 2 11 6 W -
17.10.2018 07:00:00 6,6 5,9 4 2 11 6 E 0,0
17.10.2018 06:00:00 6,9 6,0 4 2 13 7 SE 0,0
17.10.2018 05:00:00 7,1 6,4 4 2 5 3 SW 0,4
17.10.2018 04:00:00 7,0 6,3 0 0 5 3 N 0,2
17.10.2018 03:00:00 7,1 6,4 0 0 4 2 N 0,2
17.10.2018 02:00:00 6,9 6,0 0 0 5 3 N -
17.10.2018 01:00:00 6,9 6,0 4 2 13 7 WNW 0,0
17.10.2018 00:00:00 7,4 6,3 2 1 11 6 WNW 0,0
16.10.2018 23:00:00 8,1 7,3 4 2 8 4 N 0,0
16.10.2018 22:00:00 8,5 7,7 4 2 9 5 NE 0,2
16.10.2018 21:00:00 8,6 7,7 5 3 11 6 NE 0,8
16.10.2018 20:00:00 8,9 7,7 4 2 9 5 NE -
16.10.2018 19:00:00 9,3 7,4 4 2 18 10 N 0,2
16.10.2018 18:00:00 10,2 7,3 5 3 16 9 NE 0,0
16.10.2018 17:00:00 10,8 6,9 13 7 26 14 NNE 0,0
16.10.2018 16:00:00 11,5 7,0 5 3 24 13 ESE 0,0

tt = Température de l'air
td = dewpoint
ff = Vitesse du vent
fx = gusts
dd = Direction du vent
rr = Quantités de précipitations

stations d'obs. à proximité